Time;durP1;ratioP1;P1;durP2;ratioP2;P2;SDS_P1;SDS_P2;PMS_P1;PMS_P2;Temp;Humidity;BMP_temperature;BMP_pressure;BME280_temperature;BME280_humidity;BME280_pressure;Samples;Min_cycle;Max_cycle;Signal;HPM_P1;HPM_P2
2021/10/01 00:00:09;;;;;;;0.50;0.50;;;10.00;99.90;;;;;;5012991;28;20230;-76
2021/10/01 00:02:35;;;;;;;0.82;0.77;;;10.00;99.90;;;;;;5012706;28;20222;-77
2021/10/01 00:05:01;;;;;;;0.75;0.75;;;10.00;99.90;;;;;;5013403;28;20226;-77
2021/10/01 00:07:27;;;;;;;0.82;0.82;;;10.00;99.90;;;;;;5010925;28;20218;-78
2021/10/01 00:09:53;;;;;;;0.50;0.50;;;10.00;99.90;;;;;;5012926;28;20708;-78
2021/10/01 00:12:19;;;;;;;0.60;0.60;;;10.00;99.90;;;;;;5009912;28;20252;-78
2021/10/01 00:14:45;;;;;;;0.60;0.60;;;9.90;99.90;;;;;;5012967;28;20686;-78
2021/10/01 00:17:10;;;;;;;0.60;0.60;;;9.90;99.90;;;;;;5011358;28;20210;-77
2021/10/01 00:19:36;;;;;;;0.60;0.60;;;9.90;99.90;;;;;;5018506;28;20226;-78
2021/10/01 00:22:03;;;;;;;0.70;0.70;;;9.90;99.90;;;;;;5012758;28;20282;-77
2021/10/01 00:24:36;;;;;;;0.50;0.50;;;9.90;99.90;;;;;;5009734;28;20336;-79
2021/10/01 00:27:03;;;;;;;0.60;0.60;;;9.90;99.90;;;;;;5010192;28;20202;-79
2021/10/01 00:29:28;;;;;;;0.50;0.50;;;9.90;99.90;;;;;;5021348;28;20221;-79
2021/10/01 00:31:54;;;;;;;0.60;0.60;;;10.00;99.90;;;;;;5011156;28;20207;-80
2021/10/01 00:34:20;;;;;;;0.60;0.60;;;10.00;99.90;;;;;;5024245;28;20209;-76
2021/10/01 00:36:45;;;;;;;0.60;0.60;;;10.00;99.90;;;;;;5011111;28;20199;-73
2021/10/01 00:39:11;;;;;;;0.80;0.80;;;10.00;99.90;;;;;;5012907;28;20198;-73
2021/10/01 00:41:37;;;;;;;0.52;0.52;;;10.00;99.90;;;;;;5012165;28;20297;-72
2021/10/01 00:44:05;;;;;;;0.50;0.50;;;10.00;99.90;;;;;;5011146;28;20708;-73
2021/10/01 00:46:30;;;;;;;0.60;0.60;;;10.00;99.90;;;;;;5012182;28;20233;-72
2021/10/01 00:48:56;;;;;;;0.60;0.60;;;10.00;99.90;;;;;;5012463;28;20214;-73
2021/10/01 00:51:24;;;;;;;0.60;0.60;;;10.00;99.90;;;;;;5012023;28;20576;-73
2021/10/01 00:53:51;;;;;;;0.55;0.55;;;10.00;99.90;;;;;;5012518;28;20740;-73
2021/10/01 00:56:19;;;;;;;0.70;0.70;;;10.00;99.90;;;;;;5011270;28;20202;-73
2021/10/01 00:58:45;;;;;;;0.50;0.50;;;10.00;99.90;;;;;;5011442;28;20207;-72
2021/10/01 01:01:10;;;;;;;0.60;0.60;;;10.00;99.90;;;;;;5012650;28;20257;-73
2021/10/01 01:03:50;;;;;;;0.52;0.52;;;10.00;99.90;;;;;;5025373;23;20243;-72
2021/10/01 01:06:24;;;;;;;0.50;0.50;;;10.00;99.90;;;;;;5029275;28;20199;-72
2021/10/01 01:09:01;;;;;;;0.80;0.80;;;10.10;99.90;;;;;;5011423;28;20210;-72
2021/10/01 01:11:35;;;;;;;0.60;0.60;;;10.10;99.90;;;;;;5011514;28;20214;-70
2021/10/01 01:14:11;;;;;;;0.70;0.70;;;10.10;99.90;;;;;;5010639;28;20739;-71
2021/10/01 01:16:38;;;;;;;1.08;1.05;;;10.20;99.90;;;;;;5012300;28;20696;-70
2021/10/01 01:19:09;;;;;;;0.50;0.50;;;10.10;99.90;;;;;;5012149;28;20626;-70
2021/10/01 01:21:41;;;;;;;0.60;0.60;;;10.20;99.90;;;;;;5010932;28;20199;-70
2021/10/01 01:24:42;;;;;;;0.50;0.50;;;10.20;99.90;;;;;;5012485;28;20696;-71
2021/10/01 01:27:26;;;;;;;0.52;0.52;;;10.20;99.90;;;;;;5012324;28;20233;-70
2021/10/01 01:30:04;;;;;;;0.50;0.50;;;10.20;99.90;;;;;;5012241;28;20281;-70
2021/10/01 01:32:33;;;;;;;0.60;0.60;;;10.20;99.90;;;;;;5010726;28;20226;-70
2021/10/01 01:35:13;;;;;;;0.50;0.50;;;10.20;99.90;;;;;;5012509;28;20207;-70
2021/10/01 01:37:49;;;;;;;0.60;0.60;;;10.30;99.90;;;;;;5015407;28;20208;-69
2021/10/01 01:40:18;;;;;;;0.50;0.50;;;10.30;99.90;;;;;;5014798;28;20576;-70
2021/10/01 01:42:46;;;;;;;0.70;0.70;;;10.30;99.90;;;;;;5014801;28;20592;-70
2021/10/01 01:45:13;;;;;;;0.60;0.60;;;10.30;99.90;;;;;;5014691;28;20712;-70
2021/10/01 01:47:40;;;;;;;0.95;0.88;;;10.30;99.90;;;;;;5014591;28;20256;-70
2021/10/01 01:50:08;;;;;;;0.60;0.60;;;10.30;99.90;;;;;;5031214;28;20214;-71
2021/10/01 01:52:36;;;;;;;0.50;0.50;;;10.30;99.90;;;;;;5014589;28;20293;-70
2021/10/01 01:55:03;;;;;;;0.60;0.60;;;10.30;99.90;;;;;;5015030;28;20429;-70
2021/10/01 01:57:30;;;;;;;0.50;0.50;;;10.30;99.90;;;;;;5016003;28;20739;-73
2021/10/01 01:59:57;;;;;;;7.10;1.17;;;10.30;99.90;;;;;;5015939;28;20673;-71
2021/10/01 02:02:24;;;;;;;0.50;0.50;;;10.30;99.90;;;;;;5027403;28;20237;-71
2021/10/01 02:04:51;;;;;;;0.60;0.60;;;10.30;99.90;;;;;;5015216;28;20214;-70
2021/10/01 02:07:18;;;;;;;0.60;0.60;;;10.30;99.90;;;;;;5014992;28;20206;-70
2021/10/01 02:09:46;;;;;;;0.60;0.60;;;10.30;99.90;;;;;;5013317;28;20340;-70
2021/10/01 02:12:12;;;;;;;0.70;0.70;;;10.30;99.90;;;;;;5013195;28;20206;-70
2021/10/01 02:14:42;;;;;;;0.60;0.60;;;10.30;99.90;;;;;;5014777;28;20238;-70
2021/10/01 02:17:10;;;;;;;0.50;0.50;;;10.30;99.90;;;;;;5015409;28;20674;-71
2021/10/01 02:19:37;;;;;;;0.50;0.50;;;10.30;99.90;;;;;;5012507;28;20575;-71
2021/10/01 02:22:04;;;;;;;0.50;0.50;;;10.30;99.90;;;;;;5013600;28;20295;-71
2021/10/01 02:24:32;;;;;;;0.60;0.60;;;10.30;99.90;;;;;;5012663;28;20222;-71
2021/10/01 02:27:52;;;;;;;0.60;0.60;;;10.30;99.90;;;;;;5012822;28;20217;-71
2021/10/01 02:30:20;;;;;;;0.60;0.60;;;10.30;99.90;;;;;;4971398;28;20222;-72
2021/10/01 02:32:54;;;;;;;0.50;0.50;;;10.30;99.90;;;;;;5015045;28;20199;-71
2021/10/01 02:35:21;;;;;;;0.52;0.52;;;10.30;99.90;;;;;;5012316;28;20202;-71
2021/10/01 02:37:46;;;;;;;0.50;0.50;;;10.30;99.90;;;;;;5012465;28;20198;-71
2021/10/01 02:40:13;;;;;;;0.50;0.50;;;10.30;99.90;;;;;;5015000;28;20211;-71
2021/10/01 02:42:38;;;;;;;0.60;0.60;;;10.30;99.90;;;;;;5013266;28;20677;-72
2021/10/01 02:45:06;;;;;;;0.50;0.50;;;10.30;99.90;;;;;;5013613;28;20213;-71
2021/10/01 02:47:35;;;;;;;0.70;0.70;;;10.30;99.90;;;;;;5011908;28;20286;-71
2021/10/01 02:50:06;;;;;;;0.43;0.43;;;10.30;99.90;;;;;;5013415;28;20211;-71
2021/10/01 02:52:40;;;;;;;0.70;0.70;;;10.30;99.90;;;;;;5013221;28;20210;-71
2021/10/01 02:55:18;;;;;;;0.70;0.70;;;10.30;99.90;;;;;;5013549;28;20270;-71
2021/10/01 02:58:03;;;;;;;0.52;0.52;;;10.30;99.90;;;;;;5014497;28;20218;-71
2021/10/01 03:00:29;;;;;;;0.68;0.68;;;10.30;99.90;;;;;;5013081;28;20232;-72
2021/10/01 03:02:55;;;;;;;0.50;0.50;;;10.30;99.90;;;;;;5013365;28;20289;-71
2021/10/01 03:05:23;;;;;;;0.60;0.60;;;10.30;99.90;;;;;;5014291;28;20207;-72
2021/10/01 03:07:50;;;;;;;0.50;0.50;;;10.30;99.90;;;;;;5013149;28;20579;-71
2021/10/01 03:10:16;;;;;;;4.32;1.17;;;10.30;99.90;;;;;;5014024;28;20653;-72
2021/10/01 03:12:44;;;;;;;0.50;0.50;;;10.30;99.90;;;;;;5013057;28;20228;-71
2021/10/01 03:15:12;;;;;;;0.60;0.60;;;10.40;99.90;;;;;;5012853;28;20207;-71
2021/10/01 03:17:39;;;;;;;0.50;0.50;;;10.30;99.90;;;;;;5014000;28;20199;-71
2021/10/01 03:20:06;;;;;;;0.50;0.50;;;10.30;99.90;;;;;;5014058;28;20241;-72
2021/10/01 03:22:33;;;;;;;0.75;0.75;;;10.40;99.90;;;;;;5012548;28;20304;-71
2021/10/01 03:25:00;;;;;;;0.47;0.47;;;10.40;99.90;;;;;;5014163;28;20203;-71
2021/10/01 03:27:32;;;;;;;0.40;0.40;;;10.40;99.90;;;;;;5011353;28;20406;-71
2021/10/01 03:30:06;;;;;;;0.57;0.57;;;10.40;99.90;;;;;;5013920;28;20276;-71
2021/10/01 03:32:32;;;;;;;0.60;0.60;;;10.40;99.90;;;;;;5012351;28;20722;-70
2021/10/01 03:35:01;;;;;;;0.60;0.60;;;10.40;99.90;;;;;;5013953;28;20203;-71
2021/10/01 03:37:28;;;;;;;0.65;0.65;;;10.40;99.90;;;;;;5011035;28;20302;-72
2021/10/01 03:39:58;;;;;;;0.70;0.70;;;10.50;99.90;;;;;;5013735;28;20202;-70
2021/10/01 03:42:25;;;;;;;0.60;0.60;;;10.50;99.90;;;;;;5013490;28;20207;-71
2021/10/01 03:44:52;;;;;;;0.60;0.60;;;10.50;99.90;;;;;;5012467;28;20261;-71
2021/10/01 03:47:18;;;;;;;0.70;0.70;;;10.50;99.90;;;;;;5012266;28;20700;-71
2021/10/01 03:49:44;;;;;;;0.85;0.85;;;10.50;99.90;;;;;;5013562;28;20207;-70
2021/10/01 03:52:11;;;;;;;0.70;0.70;;;10.50;99.90;;;;;;5012277;28;20203;-71
2021/10/01 03:54:38;;;;;;;1.00;0.95;;;10.50;99.90;;;;;;5011924;28;20719;-71
2021/10/01 03:57:04;;;;;;;0.50;0.50;;;10.50;99.90;;;;;;5013326;28;20194;-71
2021/10/01 03:59:30;;;;;;;0.50;0.50;;;10.50;99.90;;;;;;5011461;28;20809;-69
2021/10/01 04:01:55;;;;;;;0.50;0.50;;;10.50;99.90;;;;;;5013078;28;20670;-72
2021/10/01 04:04:21;;;;;;;0.90;0.90;;;10.60;99.90;;;;;;5013037;28;20203;-71
2021/10/01 04:06:47;;;;;;;0.55;0.55;;;10.60;99.90;;;;;;5013740;28;20697;-71
2021/10/01 04:09:12;;;;;;;1.35;1.25;;;10.50;99.90;;;;;;5011864;28;20657;-71
2021/10/01 04:11:39;;;;;;;1.85;1.10;;;10.60;99.90;;;;;;5013038;28;20210;-71
2021/10/01 04:14:06;;;;;;;0.85;0.73;;;10.60;99.90;;;;;;5011795;28;20227;-71
2021/10/01 04:16:32;;;;;;;0.60;0.60;;;10.60;99.90;;;;;;5012885;28;20294;-71
2021/10/01 04:18:58;;;;;;;1.23;1.13;;;10.60;99.90;;;;;;5013017;28;20220;-71
2021/10/01 04:21:23;;;;;;;0.60;0.60;;;10.60;99.90;;;;;;5011548;28;20711;-72
2021/10/01 04:23:49;;;;;;;0.50;0.50;;;10.50;99.90;;;;;;5013074;28;20564;-71
2021/10/01 04:26:16;;;;;;;0.60;0.60;;;10.50;99.90;;;;;;5013201;28;20712;-71
2021/10/01 04:28:42;;;;;;;0.68;0.68;;;10.50;99.90;;;;;;5012764;28;20199;-72
2021/10/01 04:31:08;;;;;;;0.50;0.50;;;10.50;99.90;;;;;;5012798;28;20712;-71
2021/10/01 04:33:35;;;;;;;0.63;0.63;;;10.50;99.90;;;;;;5011414;28;20226;-71
2021/10/01 04:36:01;;;;;;;0.70;0.70;;;10.50;99.90;;;;;;5012774;28;20290;-71
2021/10/01 04:38:27;;;;;;;0.93;0.93;;;10.50;99.90;;;;;;5012057;28;20245;-72
2021/10/01 04:40:53;;;;;;;0.63;0.63;;;10.50;99.90;;;;;;5012616;28;20851;-71
2021/10/01 04:43:18;;;;;;;0.50;0.50;;;10.50;99.90;;;;;;5012614;28;20203;-72
2021/10/01 04:45:45;;;;;;;0.60;0.60;;;10.50;99.90;;;;;;5011156;28;20286;-70
2021/10/01 04:48:11;;;;;;;0.57;0.57;;;10.50;99.90;;;;;;4994368;28;20203;-71
2021/10/01 04:50:37;;;;;;;0.60;0.60;;;10.50;99.90;;;;;;5010349;28;20210;-71
2021/10/01 04:53:03;;;;;;;0.50;0.50;;;10.50;99.90;;;;;;5011574;28;20198;-70
2021/10/01 04:55:32;;;;;;;0.80;0.80;;;10.40;99.90;;;;;;5010432;28;20215;-70
2021/10/01 04:57:58;;;;;;;0.73;0.73;;;10.40;99.90;;;;;;5012322;28;20199;-70
2021/10/01 05:00:24;;;;;;;0.70;0.70;;;10.40;99.90;;;;;;5010930;28;20210;-70
2021/10/01 05:02:53;;;;;;;1.85;1.48;;;10.40;99.90;;;;;;5012001;28;20241;-70
2021/10/01 05:05:19;;;;;;;0.70;0.70;;;10.30;99.90;;;;;;5010919;28;20210;-71
2021/10/01 05:07:45;;;;;;;0.77;0.77;;;10.40;99.90;;;;;;5011609;28;20214;-71
2021/10/01 05:10:12;;;;;;;0.60;0.60;;;10.30;99.90;;;;;;5010695;28;20689;-72
2021/10/01 05:12:39;;;;;;;0.50;0.50;;;10.30;99.90;;;;;;5010378;28;20296;-72
2021/10/01 05:15:06;;;;;;;0.70;0.70;;;10.30;99.90;;;;;;5010974;28;20210;-71
2021/10/01 05:17:34;;;;;;;0.60;0.60;;;10.40;99.90;;;;;;5011986;28;20571;-71
2021/10/01 05:20:00;;;;;;;1.75;0.68;;;10.40;99.90;;;;;;5012168;28;20296;-71
2021/10/01 05:22:26;;;;;;;0.60;0.60;;;10.30;99.90;;;;;;5010675;28;20266;-71
2021/10/01 05:24:51;;;;;;;0.52;0.52;;;10.30;99.90;;;;;;5012036;28;20587;-72
2021/10/01 05:27:17;;;;;;;0.55;0.55;;;10.30;99.90;;;;;;5012409;28;20205;-71
2021/10/01 05:29:43;;;;;;;0.60;0.60;;;10.30;99.90;;;;;;5010726;28;20297;-70
2021/10/01 05:32:09;;;;;;;0.52;0.52;;;10.40;99.90;;;;;;5011005;28;20213;-72
2021/10/01 05:34:34;;;;;;;0.40;0.40;;;10.30;99.90;;;;;;5010435;28;20261;-70
2021/10/01 05:37:02;;;;;;;0.60;0.60;;;10.40;99.90;;;;;;5011096;28;20203;-70
2021/10/01 05:39:29;;;;;;;0.50;0.50;;;10.30;99.90;;;;;;5010667;28;20186;-70
2021/10/01 05:41:55;;;;;;;0.60;0.60;;;10.30;99.90;;;;;;5011052;28;20234;-70
2021/10/01 05:44:21;;;;;;;0.60;0.60;;;10.30;99.90;;;;;;5011829;28;20207;-72
2021/10/01 05:46:47;;;;;;;0.45;0.45;;;10.30;99.90;;;;;;5011300;28;20570;-70
2021/10/01 05:50:02;;;;;;;0.50;0.50;;;10.30;99.90;;;;;;5011920;28;20211;-70
2021/10/01 05:52:11;;;;;;;0.75;0.75;;;10.30;99.90;;;;;;4991211;28;20227;-70
2021/10/01 05:54:38;;;;;;;0.68;0.68;;;10.30;99.90;;;;;;5011591;28;20206;-72
2021/10/01 05:57:04;;;;;;;0.40;0.40;;;10.30;99.90;;;;;;5011026;28;20210;-69
2021/10/01 05:59:30;;;;;;;0.50;0.50;;;10.30;99.90;;;;;;5011477;28;20658;-70
2021/10/01 06:01:55;;;;;;;0.50;0.50;;;10.30;99.90;;;;;;5008825;28;20207;-70
2021/10/01 06:04:21;;;;;;;0.40;0.40;;;10.30;99.90;;;;;;5009525;28;20206;-71
2021/10/01 06:06:47;;;;;;;0.50;0.50;;;10.30;99.90;;;;;;5010540;28;20202;-71
2021/10/01 06:09:17;;;;;;;0.50;0.50;;;10.20;99.90;;;;;;5009119;28;20207;-71
2021/10/01 06:11:43;;;;;;;0.70;0.70;;;10.30;99.90;;;;;;5010205;28;20217;-72
2021/10/01 06:14:10;;;;;;;0.60;0.60;;;10.30;99.90;;;;;;5010559;28;20207;-71
2021/10/01 06:16:36;;;;;;;0.50;0.50;;;10.20;99.90;;;;;;5011280;28;20289;-71
2021/10/01 06:19:03;;;;;;;0.50;0.50;;;10.20;99.90;;;;;;5010317;28;20321;-70
2021/10/01 06:21:29;;;;;;;0.50;0.50;;;10.20;99.90;;;;;;5009659;28;20609;-71
2021/10/01 06:23:55;;;;;;;0.50;0.50;;;10.30;99.90;;;;;;5015233;28;20207;-70
2021/10/01 06:26:21;;;;;;;0.43;0.43;;;10.20;99.90;;;;;;5015319;28;20305;-70
2021/10/01 06:28:46;;;;;;;0.50;0.50;;;10.20;99.90;;;;;;5015428;28;20662;-70
2021/10/01 06:31:12;;;;;;;0.55;0.52;;;10.20;99.90;;;;;;5015133;28;20248;-71
2021/10/01 06:33:38;;;;;;;0.60;0.60;;;10.20;99.90;;;;;;5013873;28;20268;-72
2021/10/01 06:36:04;;;;;;;0.68;0.55;;;10.20;99.90;;;;;;5013932;28;20211;-69
2021/10/01 06:38:31;;;;;;;0.60;0.60;;;10.20;99.90;;;;;;5013917;28;20205;-69
2021/10/01 06:40:58;;;;;;;0.65;0.65;;;10.20;99.90;;;;;;5015546;28;20199;-72
2021/10/01 06:43:25;;;;;;;0.50;0.50;;;10.20;99.90;;;;;;5014920;28;20214;-73
2021/10/01 06:45:53;;;;;;;3.50;1.48;;;10.20;99.90;;;;;;5015636;28;20711;-69
2021/10/01 06:48:28;;;;;;;0.50;0.50;;;10.20;99.90;;;;;;5013712;28;20723;-71
2021/10/01 07:23:34;;;;;;;0.50;0.50;;;10.00;99.90;;;;;;5013121;28;20213;-71
2021/10/01 08:20:52;;;;;;;0.50;0.50;;;9.90;99.90;;;;;;5013902;28;20260;-69
2021/10/01 08:23:17;;;;;;;0.60;0.60;;;9.80;99.90;;;;;;5012033;28;20211;-69
2021/10/01 08:25:43;;;;;;;1.65;1.27;;;9.80;99.90;;;;;;5011920;28;20585;-69
2021/10/01 08:28:10;;;;;;;0.50;0.50;;;9.90;99.90;;;;;;5012153;28;20219;-68
2021/10/01 08:30:37;;;;;;;0.50;0.50;;;9.90;99.90;;;;;;5011621;28;20680;-69
2021/10/01 08:33:03;;;;;;;0.90;0.90;;;9.90;99.90;;;;;;5012082;28;20571;-69
2021/10/01 08:35:29;;;;;;;0.60;0.60;;;9.90;99.90;;;;;;5012075;28;20206;-69
2021/10/01 08:37:57;;;;;;;0.60;0.60;;;9.90;99.90;;;;;;5011780;28;20253;-69
2021/10/01 08:40:24;;;;;;;0.60;0.60;;;9.90;99.90;;;;;;5011556;28;20217;-69
2021/10/01 08:42:51;;;;;;;0.50;0.50;;;9.90;99.90;;;;;;5013677;28;20206;-69
2021/10/01 08:45:18;;;;;;;0.70;0.70;;;9.80;99.90;;;;;;5011859;28;20223;-68
2021/10/01 08:47:48;;;;;;;0.63;0.63;;;9.90;99.90;;;;;;5013867;28;20210;-69
2021/10/01 08:50:18;;;;;;;0.50;0.50;;;9.80;99.90;;;;;;5013461;28;20225;-68
2021/10/01 08:52:45;;;;;;;0.60;0.60;;;9.90;99.90;;;;;;5014970;28;20198;-69
2021/10/01 08:55:21;;;;;;;0.60;0.60;;;9.90;99.90;;;;;;5012980;28;20208;-70
2021/10/01 08:57:46;;;;;;;0.70;0.70;;;9.90;99.90;;;;;;5014784;28;20199;-68
2021/10/01 09:00:15;;;;;;;0.60;0.60;;;9.90;99.90;;;;;;5012724;28;20302;-69
2021/10/01 09:02:42;;;;;;;0.60;0.60;;;9.90;99.90;;;;;;5011728;28;20239;-69
2021/10/01 09:05:09;;;;;;;0.70;0.70;;;9.90;99.90;;;;;;5012370;28;20581;-68
2021/10/01 09:07:35;;;;;;;0.60;0.60;;;9.90;99.90;;;;;;5013181;28;20206;-69
2021/10/01 09:10:03;;;;;;;0.60;0.60;;;9.90;99.90;;;;;;5012080;28;20674;-69
2021/10/01 09:12:29;;;;;;;1.20;1.10;;;9.90;99.90;;;;;;5012538;28;20203;-69
2021/10/01 09:14:58;;;;;;;0.60;0.60;;;9.90;99.90;;;;;;5012815;28;20205;-69
2021/10/01 09:17:27;;;;;;;0.60;0.60;;;9.90;99.90;;;;;;5010366;28;20289;-69
2021/10/01 09:19:54;;;;;;;0.70;0.68;;;10.00;99.90;;;;;;5012870;28;20194;-69
2021/10/01 09:22:34;;;;;;;0.40;0.40;;;10.00;99.90;;;;;;5011300;28;20657;-70
2021/10/01 09:25:21;;;;;;;0.50;0.50;;;10.00;99.90;;;;;;5012065;28;20211;-68
2021/10/01 09:27:50;;;;;;;0.68;0.68;;;10.00;99.90;;;;;;5011275;28;20603;-68
2021/10/01 09:30:18;;;;;;;0.50;0.50;;;10.00;99.90;;;;;;5010876;28;20289;-70
2021/10/01 09:33:06;;;;;;;0.60;0.60;;;10.00;99.90;;;;;;5012776;28;20210;-68
2021/10/01 09:35:32;;;;;;;0.60;0.60;;;10.00;99.90;;;;;;4994050;28;20191;-69
2021/10/01 09:38:08;;;;;;;0.60;0.60;;;10.10;99.90;;;;;;5011464;28;20198;-69
2021/10/01 09:40:35;;;;;;;0.50;0.50;;;10.10;99.90;;;;;;5010643;28;20336;-68
2021/10/01 09:43:01;;;;;;;0.80;0.80;;;10.10;99.90;;;;;;5011864;28;20198;-68
2021/10/01 09:45:26;;;;;;;0.50;0.50;;;10.10;99.90;;;;;;5011873;28;20214;-68
2021/10/01 09:47:52;;;;;;;0.50;0.50;;;10.10;99.90;;;;;;5011344;28;20210;-68
2021/10/01 09:50:32;;;;;;;0.50;0.50;;;10.10;99.90;;;;;;5011146;28;20301;-68
2021/10/01 09:53:06;;;;;;;0.45;0.45;;;10.20;99.90;;;;;;5012031;28;20234;-68
2021/10/01 09:55:38;;;;;;;0.60;0.60;;;10.20;99.90;;;;;;5010763;28;20292;-69
2021/10/01 09:58:16;;;;;;;0.57;0.57;;;10.20;99.90;;;;;;5013450;28;20674;-68
2021/10/01 10:00:46;;;;;;;0.60;0.60;;;10.20;99.90;;;;;;5014400;28;20211;-68
2021/10/01 10:03:23;;;;;;;0.52;0.52;;;10.30;99.90;;;;;;5014624;28;20242;-68
2021/10/01 10:05:53;;;;;;;0.73;0.73;;;10.20;99.90;;;;;;5014895;28;20797;-67
2021/10/01 10:08:21;;;;;;;0.82;0.70;;;10.30;99.90;;;;;;5015945;28;20670;-68
2021/10/01 10:10:47;;;;;;;0.60;0.60;;;10.30;99.90;;;;;;5015882;28;20210;-68
2021/10/01 10:13:13;;;;;;;1.98;0.93;;;10.30;99.90;;;;;;5014940;28;20689;-69
2021/10/01 10:15:41;;;;;;;0.60;0.60;;;10.30;99.90;;;;;;5014295;28;20207;-68
2021/10/01 10:18:18;;;;;;;0.50;0.50;;;10.30;99.90;;;;;;5014294;28;20206;-69
2021/10/01 10:20:44;;;;;;;0.50;0.50;;;10.30;99.90;;;;;;5014357;28;20216;-68
2021/10/01 10:23:09;;;;;;;0.60;0.60;;;10.40;99.90;;;;;;5014630;28;20552;-68
2021/10/01 10:25:35;;;;;;;0.60;0.60;;;10.40;99.90;;;;;;5014040;28;20692;-68
2021/10/01 10:28:01;;;;;;;0.60;0.60;;;10.40;99.90;;;;;;5014348;28;20669;-68
2021/10/01 10:30:27;;;;;;;0.50;0.50;;;10.40;99.90;;;;;;5015477;28;20631;-68
2021/10/01 10:32:52;;;;;;;0.60;0.60;;;10.50;99.90;;;;;;5014468;28;20230;-69
2021/10/01 10:35:19;;;;;;;0.50;0.50;;;10.50;99.90;;;;;;5015606;28;20690;-69
2021/10/01 10:37:50;;;;;;;0.50;0.50;;;10.50;99.90;;;;;;5014040;28;20199;-68
2021/10/01 10:40:17;;;;;;;0.60;0.60;;;10.50;99.90;;;;;;5014032;28;20232;-68
2021/10/01 10:43:02;;;;;;;0.52;0.52;;;10.60;99.90;;;;;;5015135;28;20210;-69
2021/10/01 10:45:27;;;;;;;18.88;1.23;;;10.60;99.90;;;;;;5015082;28;20203;-69
2021/10/01 10:47:53;;;;;;;0.50;0.50;;;10.60;99.90;;;;;;5015233;28;20198;-69
2021/10/01 10:50:24;;;;;;;0.60;0.60;;;10.60;99.90;;;;;;5014999;28;20203;-71
2021/10/01 10:53:15;;;;;;;0.50;0.50;;;10.60;99.90;;;;;;5030585;28;20195;-70
2021/10/01 10:55:56;;;;;;;0.60;0.60;;;10.60;99.90;;;;;;5015371;28;20206;-69
2021/10/01 10:58:22;;;;;;;0.55;0.55;;;10.70;99.90;;;;;;5013506;28;20685;-69
2021/10/01 11:00:51;;;;;;;0.60;0.60;;;10.70;99.90;;;;;;5014950;28;20206;-68
2021/10/01 11:03:19;;;;;;;0.52;0.52;;;10.70;99.90;;;;;;5014654;28;20234;-69
2021/10/01 11:06:05;;;;;;;0.70;0.70;;;10.80;99.90;;;;;;5013971;28;20218;-69
2021/10/01 11:08:30;;;;;;;0.52;0.52;;;10.80;99.90;;;;;;5013653;28;20199;-70
2021/10/01 11:10:56;;;;;;;0.70;0.70;;;10.80;99.90;;;;;;5012366;28;20257;-70
2021/10/01 11:13:22;;;;;;;0.70;0.70;;;10.80;99.90;;;;;;5014546;28;20566;-69
2021/10/01 11:16:07;;;;;;;0.60;0.60;;;10.80;99.90;;;;;;5013924;28;20226;-69
2021/10/01 11:18:33;;;;;;;1.30;1.20;;;10.90;99.90;;;;;;5014540;28;20252;-69
2021/10/01 11:20:59;;;;;;;0.52;0.52;;;10.90;99.90;;;;;;5013563;28;20203;-71
2021/10/01 11:23:25;;;;;;;0.60;0.60;;;10.80;99.90;;;;;;5013417;28;20225;-70
2021/10/01 11:25:51;;;;;;;0.60;0.60;;;10.90;99.90;;;;;;5014717;28;20285;-70
2021/10/01 11:28:29;;;;;;;0.55;0.55;;;10.90;99.90;;;;;;5014725;28;20202;-69
2021/10/01 11:30:54;;;;;;;0.60;0.60;;;10.90;99.90;;;;;;4998939;28;20260;-69
2021/10/01 11:33:22;;;;;;;0.70;0.70;;;10.90;99.90;;;;;;5015643;28;20199;-70
2021/10/01 11:35:55;;;;;;;0.60;0.60;;;10.90;99.90;;;;;;5013324;28;20309;-69
2021/10/01 11:38:23;;;;;;;0.60;0.60;;;11.00;99.90;;;;;;4995921;28;20195;-70
2021/10/01 11:41:03;;;;;;;0.52;0.52;;;11.10;99.90;;;;;;5013217;28;20199;-69
2021/10/01 11:43:28;;;;;;;0.50;0.50;;;11.10;99.90;;;;;;5013915;28;20784;-69
2021/10/01 11:45:55;;;;;;;0.60;0.60;;;11.10;99.90;;;;;;5013925;28;20249;-70
2021/10/01 11:48:21;;;;;;;0.50;0.50;;;11.10;99.90;;;;;;5012721;28;20584;-71
2021/10/01 11:50:50;;;;;;;0.68;0.68;;;11.10;99.90;;;;;;5013823;28;20206;-69
2021/10/01 11:53:19;;;;;;;0.73;0.73;;;11.10;99.90;;;;;;5014094;28;20237;-69
2021/10/01 11:55:53;;;;;;;0.50;0.50;;;11.20;99.90;;;;;;5025111;28;20207;-69
2021/10/01 11:58:19;;;;;;;0.50;0.50;;;11.20;99.90;;;;;;5012964;28;20203;-69
2021/10/01 12:00:45;;;;;;;0.60;0.60;;;11.20;99.90;;;;;;5013627;28;20238;-68
2021/10/01 12:03:15;;;;;;;0.75;0.75;;;11.20;99.90;;;;;;5012525;28;20321;-69
2021/10/01 12:05:47;;;;;;;0.60;0.60;;;11.10;99.90;;;;;;5011323;28;20293;-69
2021/10/01 12:08:15;;;;;;;0.50;0.50;;;11.20;99.90;;;;;;5011526;28;20220;-69
2021/10/01 12:10:46;;;;;;;0.50;0.50;;;11.20;99.90;;;;;;5012077;28;20569;-68
2021/10/01 12:13:14;;;;;;;0.60;0.60;;;11.20;99.90;;;;;;5013659;28;20233;-69
2021/10/01 12:15:48;;;;;;;0.50;0.50;;;11.10;99.90;;;;;;5013517;28;20665;-69
2021/10/01 12:18:36;;;;;;;0.73;0.73;;;11.10;99.90;;;;;;5012299;28;20234;-69
2021/10/01 12:21:19;;;;;;;0.55;0.55;;;11.10;99.90;;;;;;5011916;28;20206;-69
2021/10/01 12:24:04;;;;;;;0.57;0.57;;;11.00;99.90;;;;;;5013182;28;20211;-68
2021/10/01 12:26:31;;;;;;;0.55;0.55;;;11.10;99.90;;;;;;5013068;28;20217;-69
2021/10/01 12:29:23;;;;;;;0.60;0.60;;;11.10;99.90;;;;;;5011865;28;20207;-68
2021/10/01 12:31:51;;;;;;;0.60;0.60;;;11.10;99.90;;;;;;5012127;28;20210;-69
2021/10/01 12:34:24;;;;;;;0.60;0.60;;;11.10;99.90;;;;;;5012227;28;20744;-68
2021/10/01 12:37:00;;;;;;;0.70;0.70;;;11.20;99.90;;;;;;5013489;28;20657;-68
2021/10/01 12:39:27;;;;;;;0.50;0.50;;;11.20;99.90;;;;;;5012175;28;20245;-69
2021/10/01 12:42:11;;;;;;;0.60;0.60;;;11.20;99.90;;;;;;5011717;28;20203;-68
2021/10/01 12:44:39;;;;;;;0.70;0.70;;;11.10;99.90;;;;;;5013172;28;20210;-69
2021/10/01 12:47:18;;;;;;;0.60;0.60;;;11.20;99.90;;;;;;5012781;28;20218;-69
2021/10/01 12:50:05;;;;;;;0.70;0.70;;;11.10;99.90;;;;;;5012716;28;20691;-69
2021/10/01 12:52:32;;;;;;;0.65;0.65;;;11.10;99.90;;;;;;4995078;28;20235;-69
2021/10/01 12:55:06;;;;;;;0.50;0.50;;;11.10;99.90;;;;;;5011745;28;20257;-70
2021/10/01 12:57:35;;;;;;;0.60;0.60;;;11.10;99.90;;;;;;5012298;28;20186;-69
2021/10/01 13:00:03;;;;;;;0.60;0.60;;;11.10;99.90;;;;;;5013180;28;20642;-69
2021/10/01 13:02:58;;;;;;;0.50;0.50;;;11.10;99.90;;;;;;5011427;28;20291;-69
2021/10/01 13:05:41;;;;;;;0.50;0.50;;;11.20;99.90;;;;;;4994786;28;20206;-69
2021/10/01 13:08:11;;;;;;;1.85;0.80;;;11.10;99.90;;;;;;4997373;28;20245;-70
2021/10/01 13:10:42;;;;;;;0.60;0.60;;;11.10;99.90;;;;;;5012572;28;20206;-71
2021/10/01 13:13:19;;;;;;;0.60;0.60;;;11.10;99.90;;;;;;5011388;28;20197;-70
2021/10/01 13:15:45;;;;;;;0.43;0.43;;;11.10;99.90;;;;;;5011073;28;20257;-71
2021/10/01 13:18:24;;;;;;;0.50;0.50;;;11.10;99.90;;;;;;5010390;28;20777;-70
2021/10/01 13:20:56;;;;;;;0.70;0.70;;;11.10;99.90;;;;;;4995246;28;20646;-69
2021/10/01 13:23:33;;;;;;;0.60;0.60;;;11.10;99.90;;;;;;5010872;28;20291;-70
2021/10/01 13:26:01;;;;;;;0.50;0.50;;;11.10;99.90;;;;;;4996356;28;20244;-69
2021/10/01 13:28:29;;;;;;;0.60;0.60;;;11.10;99.90;;;;;;5012292;28;20638;-69
2021/10/01 13:30:55;;;;;;;0.52;0.52;;;11.10;99.90;;;;;;5011343;28;20215;-70
2021/10/01 13:33:23;;;;;;;0.50;0.50;;;11.10;99.90;;;;;;5014144;28;20202;-68
2021/10/01 13:35:54;;;;;;;0.70;0.70;;;11.10;99.90;;;;;;5015293;28;20233;-70
2021/10/01 13:38:34;;;;;;;0.60;0.60;;;11.10;99.90;;;;;;5015975;28;20614;-69
2021/10/01 13:41:02;;;;;;;0.45;0.45;;;11.20;99.90;;;;;;5027961;28;20246;-69
2021/10/01 13:43:29;;;;;;;0.55;0.55;;;11.20;99.90;;;;;;5016205;28;20576;-69
2021/10/01 13:45:56;;;;;;;0.50;0.50;;;11.20;99.90;;;;;;5016535;28;20550;-71
2021/10/01 13:48:23;;;;;;;0.60;0.60;;;11.30;99.90;;;;;;5014806;28;20733;-70
2021/10/01 13:50:49;;;;;;;0.60;0.60;;;12.10;99.90;;;;;;5013785;28;20245;-69
2021/10/01 13:53:15;;;;;;;0.65;0.65;;;12.20;99.90;;;;;;5015492;28;20600;-71
2021/10/01 13:55:41;;;;;;;1.55;1.10;;;12.50;99.90;;;;;;5016225;28;20206;-71
2021/10/01 13:58:07;;;;;;;0.60;0.60;;;12.70;99.90;;;;;;5015937;28;20206;-73
2021/10/01 14:00:33;;;;;;;0.50;0.50;;;12.80;99.90;;;;;;5014678;28;20240;-72
2021/10/01 14:02:58;;;;;;;0.55;0.55;;;12.70;99.90;;;;;;5014233;28;20586;-74
2021/10/01 14:05:24;;;;;;;0.50;0.50;;;12.50;99.90;;;;;;5014584;28;20708;-72
2021/10/01 14:07:50;;;;;;;0.50;0.50;;;12.30;99.90;;;;;;5016208;28;20206;-73
2021/10/01 14:10:19;;;;;;;0.50;0.50;;;12.50;99.90;;;;;;5014670;28;20623;-72
2021/10/01 14:12:47;;;;;;;0.68;0.68;;;12.50;99.90;;;;;;5014495;28;20562;-70
2021/10/01 14:15:15;;;;;;;0.68;0.68;;;12.30;99.90;;;;;;5015770;28;20206;-71
2021/10/01 14:17:41;;;;;;;0.40;0.40;;;12.30;99.90;;;;;;5014124;28;20206;-70
2021/10/01 14:20:09;;;;;;;0.60;0.60;;;12.50;99.90;;;;;;5015839;28;20281;-73
2021/10/01 14:22:35;;;;;;;0.52;0.52;;;12.30;99.90;;;;;;5014492;28;20205;-72
2021/10/01 14:25:01;;;;;;;0.60;0.60;;;12.20;99.90;;;;;;5014622;28;20217;-73